Time;durP1;ratioP1;P1;durP2;ratioP2;P2;SDS_P1;SDS_P2;PMS_P1;PMS_P2;Temp;Humidity;BMP_temperature;BMP_pressure;BME280_temperature;BME280_humidity;BME280_pressure;Samples;Min_cycle;Max_cycle;Signal;HPM_P1;HPM_P2
2021/07/08 00:00:09;;;;;;;13.60;7.65;;;;;;;14.91;76.43;101165.91;1730511;81;21128;-71
2021/07/08 00:02:37;;;;;;;14.60;8.45;;;;;;;14.91;76.52;101171.79;1730482;81;21023;-70
2021/07/08 00:05:10;;;;;;;16.70;9.53;;;;;;;14.95;76.60;101161.02;1739727;81;21006;-70
2021/07/08 00:07:36;;;;;;;17.65;10.55;;;;;;;14.99;76.64;101162.30;1730284;83;21460;-70
2021/07/08 00:10:12;;;;;;;17.30;10.38;;;;;;;14.94;76.66;101171.42;1730154;81;21356;-70
2021/07/08 00:12:38;;;;;;;41.65;14.73;;;;;;;14.93;76.59;101172.43;1731556;81;20991;-70
2021/07/08 00:15:11;;;;;;;56.10;20.27;;;;;;;14.93;76.59;101172.43;1758866;81;21911;-71
2021/07/08 00:17:38;;;;;;;49.60;18.42;;;;;;;14.80;76.80;101171.70;1760419;81;21081;-70
2021/07/08 00:20:10;;;;;;;49.65;17.25;;;;;;;14.74;76.95;101176.95;1756694;81;21014;-70
2021/07/08 00:22:36;;;;;;;40.73;16.90;;;;;;;14.74;76.95;101176.95;1729949;81;21002;-70
2021/07/08 00:25:08;;;;;;;78.05;24.67;;;;;;;14.74;76.85;101187.69;1735165;81;21070;-70
2021/07/08 00:27:34;;;;;;;92.72;27.55;;;;;;;14.72;76.88;101185.67;1738927;81;21787;-70
2021/07/08 00:30:00;;;;;;;72.65;23.95;;;;;;;14.70;76.91;101179.15;1736771;81;21034;-70
2021/07/08 00:32:26;;;;;;;47.27;17.55;;;;;;;14.69;76.93;101169.41;1758193;80;21006;-70
2021/07/08 00:34:52;;;;;;;25.97;10.65;;;;;;;14.66;76.96;101154.17;1757913;80;21544;-71
2021/07/08 00:37:18;;;;;;;14.15;7.42;;;;;;;14.61;77.00;101143.11;1760880;80;20999;-70
2021/07/08 00:39:44;;;;;;;6.97;4.50;;;;;;;14.59;77.06;101138.45;1759990;80;21501;-70
2021/07/08 00:42:10;;;;;;;13.48;7.25;;;;;;;14.50;77.11;101135.80;1758387;80;20976;-70
2021/07/08 00:44:36;;;;;;;15.78;7.30;;;;;;;14.45;77.17;101136.86;1758623;81;20991;-70
2021/07/08 00:47:03;;;;;;;16.73;9.13;;;;;;;14.41;77.23;101139.56;1761076;80;21073;-70
2021/07/08 00:49:29;;;;;;;18.77;8.98;;;;;;;14.41;77.32;101131.51;1758407;81;21085;-71
2021/07/08 00:51:55;;;;;;;14.78;8.25;;;;;;;14.41;77.32;101131.51;1758781;80;21091;-71
2021/07/08 00:54:21;;;;;;;19.00;10.53;;;;;;;14.45;77.40;101126.13;1757877;81;21025;-71
2021/07/08 00:56:47;;;;;;;23.75;11.38;;;;;;;14.43;77.45;101124.10;1780983;80;21015;-71
2021/07/08 00:59:13;;;;;;;22.80;10.18;;;;;;;14.44;77.51;101121.76;1765335;80;21539;-71
2021/07/08 01:01:40;;;;;;;15.00;8.50;;;;;;;14.45;77.59;101126.62;1760692;80;21488;-70
2021/07/08 01:04:06;;;;;;;14.60;7.25;;;;;;;14.44;77.63;101121.76;1770279;80;21143;-71
2021/07/08 01:06:33;;;;;;;10.72;5.83;;;;;;;14.49;77.68;101123.92;1789342;80;21003;-70
2021/07/08 01:09:00;;;;;;;7.58;4.78;;;;;;;14.48;77.70;101120.39;1789958;79;20980;-71
2021/07/08 01:11:27;;;;;;;7.22;4.55;;;;;;;14.45;77.77;101123.44;1789496;80;20995;-70
2021/07/08 01:13:53;;;;;;;13.15;4.87;;;;;;;14.46;77.84;101118.37;1787856;79;21046;-70
2021/07/08 01:16:19;;;;;;;9.80;5.20;;;;;;;14.52;77.89;101130.77;1789368;79;21003;-70
2021/07/08 01:18:45;;;;;;;12.70;5.50;;;;;;;14.54;77.93;101135.44;1787662;79;21018;-70
2021/07/08 01:21:30;;;;;;;9.30;5.65;;;;;;;14.58;77.98;101130.89;1776169;79;21421;-71
2021/07/08 01:23:57;;;;;;;13.50;7.70;;;;;;;14.65;78.00;101118.92;1789274;79;21492;-71
2021/07/08 01:26:23;;;;;;;15.20;8.98;;;;;;;14.71;78.06;101119.55;1789491;80;20999;-71
2021/07/08 01:28:52;;;;;;;17.77;8.78;;;;;;;14.72;78.12;101107.30;1789283;79;21187;-71
2021/07/08 01:31:18;;;;;;;17.10;8.95;;;;;;;14.72;78.12;101107.30;1787392;79;21070;-71
2021/07/08 01:33:45;;;;;;;17.42;9.38;;;;;;;14.75;78.17;101108.78;1789753;79;21019;-71
2021/07/08 01:36:11;;;;;;;15.72;8.30;;;;;;;14.74;78.23;101112.50;1789348;80;20959;-71
2021/07/08 01:38:37;;;;;;;16.75;8.65;;;;;;;14.74;78.26;101109.82;1789724;80;21512;-71
2021/07/08 01:41:03;;;;;;;18.17;9.20;;;;;;;14.78;78.28;101105.73;1789560;79;21709;-71
2021/07/08 01:43:38;;;;;;;21.62;9.73;;;;;;;14.77;78.29;101108.11;1789712;80;21024;-71
2021/07/08 01:46:06;;;;;;;21.90;10.53;;;;;;;14.72;78.31;101107.30;1781502;80;21011;-71
2021/07/08 01:48:33;;;;;;;17.10;9.45;;;;;;;14.69;78.37;101117.56;1787601;79;21058;-72
2021/07/08 01:51:04;;;;;;;17.00;8.13;;;;;;;14.64;78.39;101115.91;1761063;80;21031;-71
2021/07/08 01:53:30;;;;;;;13.72;7.28;;;;;;;14.61;78.42;101118.95;1786838;80;21073;-71
2021/07/08 01:55:57;;;;;;;12.20;7.05;;;;;;;14.56;78.46;101126.22;1789281;80;21038;-71
2021/07/08 01:58:26;;;;;;;21.50;9.93;;;;;;;14.56;78.48;101129.41;1789407;80;21010;-71
2021/07/08 02:00:52;;;;;;;18.87;9.30;;;;;;;14.59;78.51;101133.08;1789750;79;21086;-71
2021/07/08 02:03:18;;;;;;;37.78;13.53;;;;;;;14.60;78.53;101132.07;1788028;80;21467;-71
2021/07/08 02:05:44;;;;;;;38.50;13.08;;;;;;;14.54;78.52;101126.05;1758803;80;21681;-71
2021/07/08 02:08:11;;;;;;;36.73;12.58;;;;;;;14.44;78.58;101121.76;1773353;80;20952;-71
2021/07/08 02:10:37;;;;;;;125.85;36.88;;;;;;;14.38;78.62;101125.16;1785528;79;20987;-71
2021/07/08 02:13:04;;;;;;;118.97;31.97;;;;;;;14.34;78.63;101121.15;1760938;80;21042;-71
2021/07/08 02:15:30;;;;;;;78.45;23.77;;;;;;;14.35;78.64;101128.20;1758458;81;21503;-71
2021/07/08 02:17:56;;;;;;;61.02;19.42;;;;;;;14.35;78.67;101120.15;1758740;80;20996;-71
2021/07/08 02:20:22;;;;;;;75.15;23.25;;;;;;;14.35;78.68;101120.15;1758394;81;21038;-71
2021/07/08 02:22:48;;;;;;;43.38;17.45;;;;;;;14.35;78.71;101119.30;1758463;81;21089;-71
2021/07/08 02:25:14;;;;;;;39.95;14.33;;;;;;;14.31;78.74;101126.84;1758140;81;21007;-71
2021/07/08 02:27:42;;;;;;;47.53;15.88;;;;;;;14.20;78.72;101131.26;1760245;80;21093;-71
2021/07/08 02:30:11;;;;;;;46.83;14.85;;;;;;;14.14;78.76;101127.94;1764390;78;21652;-71
2021/07/08 02:32:39;;;;;;;52.15;17.40;;;;;;;14.11;78.80;101130.95;1789185;79;21023;-71
2021/07/08 02:35:05;;;;;;;43.13;16.73;;;;;;;14.06;78.84;101142.72;1789406;79;21506;-71
2021/07/08 02:37:32;;;;;;;26.30;11.83;;;;;;;14.04;78.89;101147.41;1789110;80;21042;-71
2021/07/08 02:39:58;;;;;;;42.33;21.40;;;;;;;14.04;78.90;101146.06;1789899;79;21511;-71
2021/07/08 02:42:24;;;;;;;41.73;22.20;;;;;;;14.07;78.94;101155.13;1780229;80;21785;-71
2021/07/08 02:44:50;;;;;;;27.93;14.55;;;;;;;14.03;78.93;101157.83;1758535;81;20969;-71
2021/07/08 02:47:16;;;;;;;33.25;13.13;;;;;;;14.03;78.98;101158.33;1760542;80;20977;-71
2021/07/08 02:49:42;;;;;;;35.63;13.62;;;;;;;14.06;78.97;101156.63;1758487;81;20995;-71
2021/07/08 02:52:08;;;;;;;35.63;14.68;;;;;;;14.09;78.97;101158.47;1763588;80;21460;-71
2021/07/08 02:54:34;;;;;;;33.95;14.70;;;;;;;14.10;78.98;101154.78;1780421;80;21652;-71
2021/07/08 02:57:01;;;;;;;36.75;13.75;;;;;;;14.09;78.97;101158.47;1758889;80;20944;-71
2021/07/08 02:59:27;;;;;;;38.98;14.28;;;;;;;14.06;78.97;101151.27;1787748;80;20983;-71
2021/07/08 03:01:53;;;;;;;33.20;12.93;;;;;;;14.01;78.92;101153.13;1760874;80;21029;-71
2021/07/08 03:04:19;;;;;;;32.73;11.85;;;;;;;13.98;78.98;101140.06;1789481;80;20991;-71
2021/07/08 03:06:45;;;;;;;28.23;12.50;;;;;;;14.00;79.03;101140.75;1789368;80;21140;-71
2021/07/08 03:09:11;;;;;;;29.00;10.75;;;;;;;14.01;79.06;101129.83;1769244;80;21488;-71
2021/07/08 03:11:37;;;;;;;27.62;10.15;;;;;;;14.01;79.09;101135.19;1758220;81;21468;-70
2021/07/08 03:14:03;;;;;;;27.73;12.00;;;;;;;13.90;79.07;101135.56;1760948;80;20983;-71
2021/07/08 03:16:29;;;;;;;40.45;17.73;;;;;;;13.87;79.10;101143.96;1758322;81;21104;-71
2021/07/08 03:18:55;;;;;;;24.67;11.97;;;;;;;13.88;79.14;101139.44;1780729;80;21804;-71
2021/07/08 03:21:21;;;;;;;33.63;16.73;;;;;;;13.90;79.21;101141.42;1789804;79;20995;-71
2021/07/08 03:23:47;;;;;;;34.70;16.42;;;;;;;14.00;79.24;101140.75;1788931;79;21070;-71
2021/07/08 03:26:13;;;;;;;37.05;17.62;;;;;;;14.08;79.25;101148.73;1789623;79;20995;-71
2021/07/08 03:28:39;;;;;;;113.22;61.37;;;;;;;14.16;79.26;101146.03;1787144;80;20987;-71
2021/07/08 03:31:05;;;;;;;59.95;26.73;;;;;;;14.25;79.26;101147.64;1789900;79;21118;-71
2021/07/08 03:33:31;;;;;;;23.92;12.28;;;;;;;14.45;79.38;101146.75;1769279;80;21519;-71
2021/07/08 03:35:57;;;;;;;20.15;9.13;;;;;;;15.07;79.75;101143.44;1758576;81;21026;-71
2021/07/08 03:38:23;;;;;;;17.82;9.58;;;;;;;15.61;79.67;101136.08;1772051;80;21027;-71
2021/07/08 03:40:50;;;;;;;22.87;10.15;;;;;;;16.56;79.51;101148.19;1789990;79;21472;-72
2021/07/08 03:43:16;;;;;;;19.85;10.50;;;;;;;17.19;79.05;101150.89;1789550;79;22110;-72
2021/07/08 03:45:42;;;;;;;19.02;9.30;;;;;;;17.68;78.54;101151.39;1789547;80;21038;-71
2021/07/08 03:48:08;;;;;;;20.92;10.15;;;;;;;18.04;78.22;101152.02;1785284;80;20987;-71
2021/07/08 03:50:34;;;;;;;12.45;8.38;;;;;;;18.44;77.99;101148.44;1774672;80;21006;-72
2021/07/08 03:53:00;;;;;;;10.53;7.80;;;;;;;18.97;77.60;101152.64;1789859;79;20995;-72
2021/07/08 03:55:26;;;;;;;13.90;8.33;;;;;;;19.71;76.90;101159.20;1763101;79;21111;-72
2021/07/08 03:57:52;;;;;;;13.72;8.08;;;;;;;20.00;76.26;101160.59;1758546;81;21535;-71
2021/07/08 04:00:37;;;;;;;13.70;8.30;;;;;;;20.74;75.77;101154.15;1758404;80;21080;-72
2021/07/08 04:03:07;;;;;;;10.03;7.55;;;;;;;21.57;74.74;101154.24;1758206;81;21035;-72
2021/07/08 04:05:34;;;;;;;8.63;6.90;;;;;;;21.72;73.58;101163.39;1758235;81;21022;-72
2021/07/08 04:08:00;;;;;;;9.70;7.30;;;;;;;21.77;72.87;101164.41;1759851;80;22170;-72
2021/07/08 04:10:27;;;;;;;12.15;7.08;;;;;;;21.53;72.42;101171.22;1760699;80;21031;-72
2021/07/08 04:12:53;;;;;;;18.77;7.60;;;;;;;21.53;71.88;101165.80;1760780;80;21042;-72
2021/07/08 04:15:19;;;;;;;14.83;7.65;;;;;;;22.05;71.45;101160.37;1758705;80;21549;-72
2021/07/08 04:17:45;;;;;;;10.63;6.95;;;;;;;22.45;70.44;101156.64;1758123;81;20942;-72
2021/07/08 04:20:14;;;;;;;8.65;6.80;;;;;;;22.45;69.51;101155.29;1760862;80;21548;-71
2021/07/08 04:22:40;;;;;;;11.22;6.22;;;;;;;22.63;69.12;101147.06;1758657;80;20994;-72
2021/07/08 04:25:07;;;;;;;10.65;6.58;;;;;;;22.44;68.31;101153.62;1762477;81;21015;-71
2021/07/08 04:27:34;;;;;;;11.53;5.72;;;;;;;22.23;68.07;101162.56;1767521;79;21077;-71
2021/07/08 04:30:05;;;;;;;9.30;5.87;;;;;;;21.74;67.58;101164.02;1784562;79;20995;-71
2021/07/08 04:32:31;;;;;;;8.85;5.55;;;;;;;21.11;67.45;101166.84;1767232;79;21261;-71
2021/07/08 04:34:57;;;;;;;15.50;5.65;;;;;;;20.40;67.39;101162.99;1730266;83;21034;-71
2021/07/08 04:37:24;;;;;;;8.00;5.45;;;;;;;19.72;67.66;101163.58;1730784;81;21046;-71
2021/07/08 04:39:52;;;;;;;7.72;5.70;;;;;;;19.30;67.80;101167.02;1731066;81;21050;-71
2021/07/08 04:42:18;;;;;;;11.15;5.33;;;;;;;19.14;68.00;101162.01;1740396;81;21117;-71
2021/07/08 04:44:47;;;;;;;8.03;5.17;;;;;;;18.94;68.14;101161.16;1760711;81;21167;-71
2021/07/08 04:47:14;;;;;;;6.22;5.62;;;;;;;18.70;68.24;101156.34;1746589;81;26591;-71
2021/07/08 04:49:40;;;;;;;10.68;5.62;;;;;;;18.48;68.41;101155.10;1730636;82;21041;-71
2021/07/08 04:52:07;;;;;;;6.35;4.75;;;;;;;18.26;68.65;101156.25;1730197;83;21097;-71
2021/07/08 04:54:33;;;;;;;7.08;5.10;;;;;;;18.02;68.85;101162.17;1730464;83;21542;-71
2021/07/08 04:56:59;;;;;;;8.30;5.17;;;;;;;17.86;69.10;101154.41;1741361;81;21741;-71
2021/07/08 04:59:26;;;;;;;7.05;5.15;;;;;;;17.82;69.32;101158.53;1758760;81;21105;-71
2021/07/08 05:01:52;;;;;;;6.85;4.42;;;;;;;17.79;69.60;101151.67;1740856;81;21034;-71
2021/07/08 05:04:18;;;;;;;9.68;5.42;;;;;;;17.73;69.81;101146.25;1735783;81;21011;-71
2021/07/08 05:06:44;;;;;;;11.00;5.62;;;;;;;17.66;70.08;101147.52;1756327;81;21046;-72
2021/07/08 05:09:10;;;;;;;8.50;5.10;;;;;;;17.55;70.33;101152.63;1733321;81;21183;-71
2021/07/08 05:11:36;;;;;;;10.68;6.20;;;;;;;17.47;70.59;101149.05;1756413;81;22272;-71
2021/07/08 05:14:02;;;;;;;8.30;5.87;;;;;;;17.38;70.79;101150.75;1759036;81;21010;-71
2021/07/08 05:16:28;;;;;;;10.10;6.42;;;;;;;17.28;71.02;101148.36;1761376;81;21026;-71
2021/07/08 05:18:54;;;;;;;9.33;6.40;;;;;;;17.19;71.23;101148.20;1761308;81;21078;-71
2021/07/08 05:21:21;;;;;;;12.93;9.10;;;;;;;17.14;71.43;101147.94;1745244;81;21008;-71
2021/07/08 05:23:47;;;;;;;13.78;9.45;;;;;;;17.06;71.64;101149.44;1730488;82;21018;-71
2021/07/08 05:26:13;;;;;;;9.53;8.53;;;;;;;17.04;71.88;101142.55;1720442;82;21022;-71
2021/07/08 05:28:39;;;;;;;9.10;7.70;;;;;;;17.04;72.12;101149.29;1713643;82;21501;-70
2021/07/08 05:31:05;;;;;;;9.78;7.65;;;;;;;17.01;72.33;101153.22;1733791;82;21467;-70
2021/07/08 05:33:31;;;;;;;10.10;8.48;;;;;;;16.95;72.56;101156.18;1739515;82;21789;-71
2021/07/08 05:35:57;;;;;;;10.55;8.73;;;;;;;16.92;72.79;101159.23;1741727;82;21034;-71
2021/07/08 05:38:23;;;;;;;10.93;9.40;;;;;;;16.86;72.98;101157.31;1741674;82;21031;-71
2021/07/08 05:40:49;;;;;;;13.40;9.38;;;;;;;16.92;73.23;101167.86;1737441;82;21002;-71
2021/07/08 05:43:15;;;;;;;14.35;12.85;;;;;;;16.90;73.37;101175.28;1737643;82;21003;-71
2021/07/08 05:45:41;;;;;;;33.15;27.48;;;;;;;16.89;73.51;101164.17;1741930;81;21139;-71
2021/07/08 05:48:07;;;;;;;24.35;20.77;;;;;;;16.90;73.68;101151.03;1724103;82;21035;-71
2021/07/08 05:50:33;;;;;;;23.35;19.25;;;;;;;16.89;73.83;101153.39;1721648;83;21058;-70
2021/07/08 05:52:59;;;;;;;17.70;12.73;;;;;;;16.84;73.96;101153.16;1727746;82;21342;-70
2021/07/08 05:55:25;;;;;;;14.85;11.65;;;;;;;16.98;74.17;101156.30;1743910;82;21529;-71
2021/07/08 05:57:51;;;;;;;17.05;12.10;;;;;;;17.10;74.22;101150.69;1735124;82;21522;-70
2021/07/08 06:00:19;;;;;;;10.78;8.93;;;;;;;17.16;74.33;101145.89;1724214;82;21518;-71
2021/07/08 06:02:45;;;;;;;12.88;8.43;;;;;;;17.27;74.44;101150.77;1730029;82;21046;-71
2021/07/08 06:05:12;;;;;;;13.78;10.08;;;;;;;17.31;74.56;101155.25;1730333;82;21409;-71
2021/07/08 06:07:38;;;;;;;13.38;10.25;;;;;;;17.25;74.65;101152.80;1744037;81;21000;-71
2021/07/08 06:10:06;;;;;;;10.53;8.88;;;;;;;17.24;74.74;101156.52;1739276;81;21059;-71
2021/07/08 06:12:32;;;;;;;11.90;9.58;;;;;;;17.21;74.81;101149.33;1721161;82;21050;-70
2021/07/08 06:14:58;;;;;;;13.25;9.55;;;;;;;17.20;74.89;101151.73;1709472;83;20998;-70
2021/07/08 06:17:24;;;;;;;13.32;9.55;;;;;;;17.19;74.93;101147.36;1716237;82;21059;-70
2021/07/08 06:19:50;;;;;;;15.63;8.53;;;;;;;17.20;74.98;101151.22;1718230;82;21154;-71
2021/07/08 06:22:16;;;;;;;19.55;9.93;;;;;;;17.26;75.05;101150.44;1728594;83;21427;-71
2021/07/08 06:24:43;;;;;;;13.88;11.40;;;;;;;17.39;75.09;101149.18;1731557;81;21029;-71
2021/07/08 06:27:10;;;;;;;14.35;10.03;;;;;;;17.48;75.09;101152.07;1759534;80;21520;-71
2021/07/08 06:29:36;;;;;;;9.28;7.75;;;;;;;17.54;75.22;101156.34;1778466;80;22224;-70
2021/07/08 06:32:02;;;;;;;10.13;8.05;;;;;;;17.56;75.21;101158.34;1787943;80;20982;-71
2021/07/08 06:34:28;;;;;;;10.23;9.10;;;;;;;17.53;75.25;101155.50;1756779;81;21853;-70
2021/07/08 06:36:54;;;;;;;13.72;10.43;;;;;;;17.39;75.32;101156.44;1734652;81;21009;-71
2021/07/08 06:39:20;;;;;;;15.78;14.07;;;;;;;17.33;75.40;101155.36;1787077;80;20987;-71
2021/07/08 06:41:46;;;;;;;21.65;14.35;;;;;;;17.30;75.45;101151.72;1772476;80;20987;-71
2021/07/08 06:44:12;;;;;;;18.32;13.95;;;;;;;17.25;75.46;101147.92;1788706;79;21507;-70
2021/07/08 06:46:39;;;;;;;17.82;11.95;;;;;;;17.17;75.45;101146.19;1786145;80;21865;-71
2021/07/08 06:49:07;;;;;;;14.33;11.33;;;;;;;17.08;75.52;101152.77;1767088;80;20995;-70
2021/07/08 06:51:33;;;;;;;12.75;10.30;;;;;;;16.96;75.62;101155.13;1789923;80;21502;-70
2021/07/08 06:54:00;;;;;;;13.83;9.65;;;;;;;16.90;75.73;101166.69;1792249;80;21407;-71
2021/07/08 06:56:26;;;;;;;15.45;11.53;;;;;;;16.84;75.83;101161.23;1760625;81;21002;-71
2021/07/08 06:58:52;;;;;;;12.75;10.13;;;;;;;16.76;75.90;101168.09;1786716;80;21298;-70
2021/07/08 07:01:18;;;;;;;18.15;11.12;;;;;;;16.70;75.94;101162.13;1789064;80;21062;-71
2021/07/08 07:03:45;;;;;;;14.13;11.95;;;;;;;16.70;76.08;101158.09;1782668;80;21039;-70
2021/07/08 07:06:11;;;;;;;19.48;12.82;;;;;;;16.74;76.21;101162.07;1771654;80;20983;-71
2021/07/08 07:08:37;;;;;;;18.98;12.98;;;;;;;16.81;76.31;101157.59;1786757;79;21046;-70
2021/07/08 07:11:03;;;;;;;13.75;12.15;;;;;;;16.84;76.37;101155.84;1789216;80;21734;-71
2021/07/08 07:13:29;;;;;;;16.48;12.95;;;;;;;16.85;76.44;101162.91;1788943;79;20967;-70
2021/07/08 07:15:55;;;;;;;16.85;13.80;;;;;;;16.83;76.51;101160.91;1789442;79;20995;-71
2021/07/08 07:18:21;;;;;;;15.43;13.45;;;;;;;16.91;76.56;101164.83;1786644;79;20992;-70
2021/07/08 07:20:47;;;;;;;17.30;13.18;;;;;;;16.97;76.58;101161.36;1789170;80;21062;-71
2021/07/08 07:23:14;;;;;;;18.50;12.78;;;;;;;17.03;76.64;101159.23;1769498;79;21133;-71
2021/07/08 07:25:40;;;;;;;13.72;11.85;;;;;;;17.06;76.65;101156.69;1787285;79;21019;-71
2021/07/08 07:28:08;;;;;;;14.20;12.55;;;;;;;17.11;76.72;101153.72;1797933;79;21042;-71
2021/07/08 07:30:34;;;;;;;13.03;11.38;;;;;;;17.23;76.75;101169.70;1808862;79;21018;-71
2021/07/08 07:33:00;;;;;;;14.53;11.35;;;;;;;17.34;76.75;101177.27;1777748;79;21057;-71
2021/07/08 07:35:26;;;;;;;13.30;10.60;;;;;;;17.35;76.74;101174.86;1765737;81;21091;-71
2021/07/08 07:37:52;;;;;;;11.38;10.18;;;;;;;17.49;76.78;101182.03;1766582;79;21074;-71
2021/07/08 07:40:19;;;;;;;14.20;10.82;;;;;;;17.50;76.68;101184.22;1793775;79;21000;-71
2021/07/08 07:42:47;;;;;;;14.13;11.40;;;;;;;17.39;76.74;101186.94;1795684;79;21058;-72
2021/07/08 07:45:13;;;;;;;16.45;11.88;;;;;;;17.34;76.79;101171.88;1797937;79;21030;-71
2021/07/08 07:47:39;;;;;;;21.55;11.65;;;;;;;17.38;76.80;101165.58;1797917;79;21552;-71
2021/07/08 07:50:06;;;;;;;16.23;12.37;;;;;;;17.41;76.81;101171.41;1797887;79;21062;-71
2021/07/08 07:52:33;;;;;;;16.95;13.75;;;;;;;17.42;76.79;101174.41;1797561;79;20995;-71
2021/07/08 07:54:59;;;;;;;19.85;17.75;;;;;;;17.45;76.81;101168.62;1773645;79;21507;-70
2021/07/08 07:57:25;;;;;;;26.55;21.37;;;;;;;17.59;76.80;101170.12;1783052;79;21888;-71
2021/07/08 07:59:51;;;;;;;31.62;25.48;;;;;;;17.74;76.79;101169.47;1766480;81;21649;-71
2021/07/08 08:02:17;;;;;;;29.80;23.12;;;;;;;18.02;76.77;101168.91;1765952;80;20982;-71
2021/07/08 08:10:13;;;;;;;40.83;30.17;;;;;;;18.11;76.57;101170.44;1766089;80;20991;-71
2021/07/08 08:12:39;;;;;;;33.48;29.18;;;;;;;18.22;76.55;101173.92;1787053;79;21775;-71
2021/07/08 08:15:07;;;;;;;29.00;25.32;;;;;;;18.26;76.50;101168.41;1798091;79;21503;-71
2021/07/08 08:17:38;;;;;;;29.77;24.87;;;;;;;18.38;76.47;101170.02;1798469;79;21566;-71
2021/07/08 08:20:06;;;;;;;32.00;25.62;;;;;;;18.50;76.42;101164.88;1798263;79;21054;-71
2021/07/08 08:22:32;;;;;;;35.83;30.25;;;;;;;18.54;76.34;101171.58;1785597;79;21014;-71
2021/07/08 08:24:58;;;;;;;32.85;27.13;;;;;;;18.67;76.31;101168.91;1798365;79;21187;-71
2021/07/08 08:27:24;;;;;;;23.00;17.77;;;;;;;18.73;76.22;101174.33;1769806;79;21007;-71
2021/07/08 08:29:50;;;;;;;20.23;13.68;;;;;;;18.76;76.11;101170.38;1789072;80;21026;-71
2021/07/08 08:32:16;;;;;;;14.70;12.28;;;;;;;18.75;76.06;101179.00;1789005;80;21511;-71
2021/07/08 08:34:42;;;;;;;17.30;12.07;;;;;;;18.84;76.00;101181.00;1789223;79;21611;-71
2021/07/08 08:37:08;;;;;;;23.10;17.57;;;;;;;18.85;75.92;101177.28;1788342;80;21862;-71
2021/07/08 08:39:34;;;;;;;22.67;19.87;;;;;;;18.87;75.92;101184.13;1788589;79;21018;-71
2021/07/08 08:42:00;;;;;;;20.32;17.77;;;;;;;18.79;75.81;101188.88;1786316;80;20987;-71
2021/07/08 08:44:26;;;;;;;19.12;15.78;;;;;;;18.84;75.86;101195.87;1758087;81;21050;-71
2021/07/08 08:46:53;;;;;;;19.70;16.97;;;;;;;18.97;75.78;101191.84;1776712;80;21034;-71
2021/07/08 08:49:19;;;;;;;16.52;14.25;;;;;;;19.04;75.70;101194.03;1788858;80;21477;-71
2021/07/08 08:51:45;;;;;;;17.57;14.43;;;;;;;19.20;75.67;101196.88;1789032;80;21011;-71
2021/07/08 08:54:12;;;;;;;19.32;14.58;;;;;;;19.32;75.56;101204.16;1786914;80;20996;-71
2021/07/08 08:56:38;;;;;;;20.65;14.25;;;;;;;19.41;75.43;101193.49;1786790;78;21090;-71
2021/07/08 08:59:04;;;;;;;18.07;14.68;;;;;;;19.56;75.40;101192.45;1759922;79;20998;-71
2021/07/08 09:01:30;;;;;;;17.60;14.55;;;;;;;19.63;75.29;101191.92;1753617;81;21557;-71
2021/07/08 09:03:56;;;;;;;16.32;14.65;;;;;;;19.71;75.16;101188.97;1764479;80;21070;-71
2021/07/08 09:06:23;;;;;;;21.05;15.25;;;;;;;19.78;75.05;101176.26;1772185;80;21002;-71
2021/07/08 09:08:50;;;;;;;17.60;13.50;;;;;;;19.92;74.88;101160.30;1766133;80;21066;-71
2021/07/08 09:11:20;;;;;;;17.55;14.35;;;;;;;20.05;74.79;101157.58;1759733;80;21000;-71
2021/07/08 09:14:03;;;;;;;17.60;14.55;;;;;;;20.34;74.57;101152.99;1760324;80;21136;-71
2021/07/08 09:16:39;;;;;;;19.85;15.93;;;;;;;20.55;74.37;101140.20;1789024;80;20983;-71
2021/07/08 09:19:18;;;;;;;18.87;15.50;;;;;;;20.50;74.18;101134.59;1789061;80;21610;-71
2021/07/08 09:21:48;;;;;;;20.65;16.20;;;;;;;20.56;74.05;101124.23;1766856;80;20976;-71
2021/07/08 09:24:16;;;;;;;;;;;;;;;20.80;73.93;101122.09;1761051;80;21007;-71
2021/07/08 09:26:47;;;;;;;17.77;14.80;;;;;;;20.98;73.67;101116.74;1784254;78;21983;-71
2021/07/08 09:29:18;;;;;;;23.75;15.25;;;;;;;21.15;73.44;101123.31;1773374;80;20995;-71
2021/07/08 09:32:03;;;;;;;24.75;14.58;;;;;;;21.07;73.21;101124.93;1788446;79;21045;-71
2021/07/08 09:34:34;;;;;;;20.72;15.05;;;;;;;20.96;73.01;101121.56;1769659;80;21027;-71
2021/07/08 09:37:05;;;;;;;19.62;14.63;;;;;;;20.91;72.93;101127.64;1783045;80;21062;-72
2021/07/08 09:39:34;;;;;;;15.98;13.08;;;;;;;20.98;72.83;101130.30;1784201;79;21810;-71
2021/07/08 09:42:00;;;;;;;;;;;;;;;20.91;72.64;101137.66;1789033;79;20983;-71
2021/07/08 09:44:27;;;;;;;18.95;14.80;;;;;;;20.92;72.56;101133.91;1789136;79;20200;-71
2021/07/08 09:46:54;;;;;;;15.32;13.10;;;;;;;20.93;72.47;101131.50;1753211;81;21061;-71
2021/07/08 09:49:21;;;;;;;16.27;12.65;;;;;;;20.89;72.40;101127.56;1759757;80;20887;-71
2021/07/08 09:51:47;;;;;;;15.72;13.38;;;;;;;20.96;72.35;101140.55;1758142;80;21388;-71
2021/07/08 09:54:18;;;;;;;17.25;15.10;;;;;;;20.94;72.18;101147.54;1786935;80;21010;-71
2021/07/08 09:56:45;;;;;;;92.02;41.05;;;;;;;20.95;72.12;101160.58;1789127;79;21002;-71
2021/07/08 09:59:13;;;;;;;17.25;14.68;;;;;;;20.95;71.97;101163.29;1789227;80;20968;-71
2021/07/08 10:01:40;;;;;;;15.60;13.38;;;;;;;20.99;71.88;101164.52;1789161;79;21483;-71
2021/07/08 10:04:06;;;;;;;16.35;13.20;;;;;;;21.00;71.79;101153.16;1744090;80;22038;-71
2021/07/08 10:06:32;;;;;;;13.75;12.45;;;;;;;21.05;71.71;101153.30;1771832;79;20982;-71
2021/07/08 10:08:58;;;;;;;15.20;12.60;;;;;;;21.03;71.58;101160.33;1757896;81;21389;-71
2021/07/08 10:11:24;;;;;;;15.80;13.50;;;;;;;20.97;71.55;101166.60;1757694;81;21047;-71
2021/07/08 10:13:51;;;;;;;17.55;12.95;;;;;;;21.06;71.60;101169.89;1758017;81;21026;-71
2021/07/08 10:16:17;;;;;;;20.17;14.13;;;;;;;21.02;71.47;101172.21;1757786;81;21575;-71
2021/07/08 10:18:45;;;;;;;19.12;14.38;;;;;;;20.94;71.43;101162.45;1757733;81;21034;-71
2021/07/08 10:21:12;;;;;;;16.67;13.80;;;;;;;20.77;71.41;101145.57;1774872;80;21014;-71
2021/07/08 10:23:40;;;;;;;14.75;13.25;;;;;;;20.66;71.42;101139.48;1765269;79;21804;-71
2021/07/08 10:26:08;;;;;;;16.70;13.93;;;;;;;20.55;71.45;101137.49;1789090;79;20996;-71
2021/07/08 10:28:41;;;;;;;19.05;14.15;;;;;;;20.42;71.49;101128.37;1788302;80;21057;-71
2021/07/08 10:31:07;;;;;;;14.83;13.28;;;;;;;20.43;71.59;101134.63;1784795;79;21562;-71
2021/07/08 10:33:33;;;;;;;19.07;13.00;;;;;;;20.39;71.60;101135.58;1788848;78;20999;-71
2021/07/08 10:35:59;;;;;;;16.40;12.90;;;;;;;20.35;71.67;101123.51;1788934;80;21034;-71
2021/07/08 10:38:39;;;;;;;22.77;14.73;;;;;;;20.41;71.77;101123.98;1789116;80;21006;-71
2021/07/08 10:41:13;;;;;;;17.00;14.23;;;;;;;20.51;71.79;101115.94;1770270;79;21217;-71
2021/07/08 10:43:43;;;;;;;18.32;14.18;;;;;;;20.56;71.78;101122.35;1770021;80;21503;-71
2021/07/08 10:46:14;;;;;;;18.10;13.70;;;;;;;20.62;71.78;101120.66;1788419;79;21443;-71
2021/07/08 10:48:50;;;;;;;15.65;12.93;;;;;;;20.60;71.74;101126.81;1786869;79;20995;-71
2021/07/08 10:51:31;;;;;;;17.95;12.78;;;;;;;20.59;71.80;101133.27;1762176;80;21011;-71
2021/07/08 10:53:57;;;;;;;16.80;13.13;;;;;;;20.65;71.84;101125.65;1769308;80;21295;-71
2021/07/08 10:56:32;;;;;;;18.07;13.93;;;;;;;20.68;71.79;101118.43;1789735;79;20987;-71
2021/07/08 10:58:58;;;;;;;16.10;12.65;;;;;;;20.73;71.83;101115.88;1769538;79;21043;-71
2021/07/08 11:01:30;;;;;;;16.50;14.75;;;;;;;20.80;71.79;101109.89;1781746;80;21005;-71
2021/07/08 11:03:58;;;;;;;15.85;13.53;;;;;;;20.86;71.75;101099.54;1788980;79;21039;-71
2021/07/08 11:06:29;;;;;;;20.35;13.25;;;;;;;20.94;71.72;101096.53;1787270;79;21535;-71
2021/07/08 11:09:04;;;;;;;16.45;14.10;;;;;;;21.05;71.68;101087.69;1774602;80;21018;-71
2021/07/08 11:11:36;;;;;;;19.48;13.15;;;;;;;21.13;71.58;101095.59;1777328;79;20983;-71
2021/07/08 11:14:15;;;;;;;17.40;13.80;;;;;;;21.14;71.51;101094.54;1759791;80;21106;-71
2021/07/08 11:16:47;;;;;;;;;;;;;;;21.15;71.43;101100.25;1769337;80;20984;-71
2021/07/08 11:19:18;;;;;;;13.78;12.33;;;;;;;21.08;71.39;101096.73;1789593;80;21393;-71